Indian Bulker — 3EYO6 — position and weather

sailwx.info

Track history (hours):
 
Tides and Currents Weather Stations Pressure Air Temp Water Temp Dewpoint Dewpoint Depression Visibility Wind Speed Wind Dir Waves Ship Positions

Indian Bulker

Last reported at 2017-Aug-27 23:48 UTC. Time now 2017-Sep-19 15:13 UTC.
Position N 31°22' E 032°20'.
Warning: this ship's position is 22 days out of date.

Length 180 m; draft 10.2 m.

Type: Ship. MMSI: 372129000.

Date/timePositionNaut miles runAvg speedWind from/ knotsBaromVisibWave heightAir tempDewpointWater temp
2017-Aug-27 23:48N 31°22' E 032°20'0 0.0
2017-Aug-27 23:30N 31°22' E 032°20'0 0.0
2017-Aug-27 22:57N 31°22' E 032°20'0 0.0
2017-Aug-27 19:37N 31°22' E 032°20'0 0.3
2017-Aug-27 19:30N 31°22' E 032°20'1 2.4
2017-Aug-27 18:57N 31°22' E 032°21'0 0.6
2017-Aug-27 18:08N 31°22' E 032°21'0 3.9
2017-Aug-27 18:01N 31°23' E 032°21'3 5.2
2017-Aug-27 17:30N 31°26' E 032°21'4 7.8
2017-Aug-27 17:00N 31°29' E 032°21'7 8.2
2017-Aug-27 16:11N 31°36' E 032°22'2 9.6
2017-Aug-27 16:00N 31°37' E 032°24'6 9.6
2017-Aug-27 15:25N 31°40' E 032°30'410.5
2017-Aug-27 15:00N 31°42' E 032°34'6 9.5
2017-Aug-27 14:24N 31°47' E 032°36'511.8
2017-Aug-27 14:00N 31°52' E 032°37'711.7
2017-Aug-27 13:24N 31°59' E 032°38'2 6.4
2017-Aug-27 13:00N 32°02' E 032°38'611.7
2017-Aug-27 12:30N 32°07' E 032°39'611.7
2017-Aug-27 12:00N 32°13' E 032°40'611.6
2017-Aug-27 11:31N 32°19' E 032°41'611.5
2017-Aug-27 11:01N 32°25' E 032°42'611.4
2017-Aug-27 10:30N 32°30' E 032°43'712.0
2017-Aug-27 09:56N 32°37' E 032°45'1112.8
2017-Aug-27 09:03N 32°48' E 032°46'010.5
2017-Aug-27 09:01N 32°49' E 032°46'7112.5
2017-Aug-27 03:20N 33°59' E 032°59'513.2
2017-Aug-27 02:59N 34°03' E 032°60'713.4
2017-Aug-27 02:26N 34°11' E 033°01'613.5
2017-Aug-27 02:00N 34°16' E 033°02'713.6
2017-Aug-27 01:28N 34°24' E 033°03'1613.0
2017-Aug-27 00:16N 34°39' E 033°05'1 3.0
2017-Aug-26 23:58N 34°40' E 033°05'0 0.0
2017-Aug-26 21:48N 34°40' E 033°05'0 0.0
2017-Aug-26 21:30N 34°40' E 033°05'0 0.0
2017-Aug-26 20:36N 34°40' E 033°05'0 0.0
2017-Aug-26 20:30N 34°40' E 033°05'0 0.0
2017-Aug-26 19:57N 34°40' E 033°05'0 0.0
2017-Aug-26 19:18N 34°40' E 033°05'0 0.0
2017-Aug-26 19:00N 34°40' E 033°05'0 0.2
2017-Aug-26 18:06N 34°40' E 033°05'2910.4
2017-Aug-26 15:21N 34°45' E 033°39'412.7
2017-Aug-26 15:00N 34°46' E 033°44'1312.8
2017-Aug-26 14:00N 34°50' E 033°59'  
Track history (hours):
 
Tides and Currents Weather Stations Pressure Air Temp Water Temp Dewpoint Dewpoint Depression Visibility Wind Speed Wind Dir Waves Ship Positions

Indian Bulker

Last reported at 2017-Aug-27 23:48 UTC. Time now 2017-Sep-19 15:13 UTC.
Position N 31°22' E 032°20'.
Warning: this ship's position is 22 days out of date.

Length 180 m; draft 10.2 m.

Type: Ship. MMSI: 372129000.

Date/timePositionNaut miles runAvg speedWind from/ knotsBaromVisibWave heightAir tempDewpointWater temp
2017-Aug-27 23:48N 31°22' E 032°20'0 0.0
2017-Aug-27 23:30N 31°22' E 032°20'0 0.0
2017-Aug-27 22:57N 31°22' E 032°20'0 0.0
2017-Aug-27 19:37N 31°22' E 032°20'0 0.3
2017-Aug-27 19:30N 31°22' E 032°20'1 2.4
2017-Aug-27 18:57N 31°22' E 032°21'0 0.6
2017-Aug-27 18:08N 31°22' E 032°21'0 3.9
2017-Aug-27 18:01N 31°23' E 032°21'3 5.2
2017-Aug-27 17:30N 31°26' E 032°21'4 7.8
2017-Aug-27 17:00N 31°29' E 032°21'7 8.2
2017-Aug-27 16:11N 31°36' E 032°22'2 9.6
2017-Aug-27 16:00N 31°37' E 032°24'6 9.6
2017-Aug-27 15:25N 31°40' E 032°30'410.5
2017-Aug-27 15:00N 31°42' E 032°34'6 9.5
2017-Aug-27 14:24N 31°47' E 032°36'511.8
2017-Aug-27 14:00N 31°52' E 032°37'711.7
2017-Aug-27 13:24N 31°59' E 032°38'2 6.4
2017-Aug-27 13:00N 32°02' E 032°38'611.7
2017-Aug-27 12:30N 32°07' E 032°39'611.7
2017-Aug-27 12:00N 32°13' E 032°40'611.6
2017-Aug-27 11:31N 32°19' E 032°41'611.5
2017-Aug-27 11:01N 32°25' E 032°42'611.4
2017-Aug-27 10:30N 32°30' E 032°43'712.0
2017-Aug-27 09:56N 32°37' E 032°45'1112.8
2017-Aug-27 09:03N 32°48' E 032°46'010.5
2017-Aug-27 09:01N 32°49' E 032°46'7112.5
2017-Aug-27 03:20N 33°59' E 032°59'513.2
2017-Aug-27 02:59N 34°03' E 032°60'713.4
2017-Aug-27 02:26N 34°11' E 033°01'613.5
2017-Aug-27 02:00N 34°16' E 033°02'713.6
2017-Aug-27 01:28N 34°24' E 033°03'1613.0
2017-Aug-27 00:16N 34°39' E 033°05'1 3.0
2017-Aug-26 23:58N 34°40' E 033°05'0 0.0
2017-Aug-26 21:48N 34°40' E 033°05'0 0.0
2017-Aug-26 21:30N 34°40' E 033°05'0 0.0
2017-Aug-26 20:36N 34°40' E 033°05'0 0.0
2017-Aug-26 20:30N 34°40' E 033°05'0 0.0
2017-Aug-26 19:57N 34°40' E 033°05'0 0.0
2017-Aug-26 19:18N 34°40' E 033°05'0 0.0
2017-Aug-26 19:00N 34°40' E 033°05'0 0.2
2017-Aug-26 18:06N 34°40' E 033°05'2910.4
2017-Aug-26 15:21N 34°45' E 033°39'412.7
2017-Aug-26 15:00N 34°46' E 033°44'1312.8
2017-Aug-26 14:00N 34°50' E 033°59'  

Dump ship's entire track history